Time;durP1;ratioP1;P1;durP2;ratioP2;P2;SDS_P1;SDS_P2;PMS_P1;PMS_P2;Temp;Humidity;BMP_temperature;BMP_pressure;BME280_temperature;BME280_humidity;BME280_pressure;Samples;Min_cycle;Max_cycle;Signal;HPM_P1;HPM_P2
2023/08/04 00:01:56;;;;;;;1.7;1.2;;;;;;;16.43;100;934.3383;;;;
2023/08/04 00:04:24;;;;;;;1.6;1.2;;;;;;;16.29;100;934.0297;;;;
2023/08/04 00:10:02;;;;;;;2.2;1.2;;;;;;;16.26;100;934.0215;;;;
2023/08/04 00:12:27;;;;;;;2.3;1.2;;;;;;;16.28;100;934.0925;;;;
2023/08/04 00:14:54;;;;;;;2.5;1.5;;;;;;;16.33;100;934.2747;;;;
2023/08/04 00:17:19;;;;;;;1.7;1;;;;;;;16.39;100;934.2319;;;;
2023/08/04 00:19:46;;;;;;;1.7;1.1;;;;;;;16.42;100;934.1479;;;;
2023/08/04 00:22:11;;;;;;;2.3;1.3;;;;;;;16.32;100;933.9833;;;;
2023/08/04 00:24:36;;;;;;;2.1;1.2;;;;;;;16.26;100;933.9097;;;;
2023/08/04 00:27:02;;;;;;;1.9;1.2;;;;;;;16.31;100;933.9088;;;;
2023/08/04 00:29:29;;;;;;;2.8;1.4;;;;;;;16.38;100;933.991;;;;
2023/08/04 00:31:54;;;;;;;5.4;1.7;;;;;;;16.32;100;933.9768;;;;
2023/08/04 00:35:01;;;;;;;2;1.4;;;;;;;16.25;100;934.0352;;;;
2023/08/04 00:37:25;;;;;;;1.9;1.4;;;;;;;16.31;100;934.1537;;;;
2023/08/04 00:39:53;;;;;;;1.8;1.2;;;;;;;16.21;100;934.3628;;;;
2023/08/04 00:42:22;;;;;;;2.9;1.4;;;;;;;16.17;100;934.5081;;;;
2023/08/04 00:44:47;;;;;;;3.2;1.3;;;;;;;16.19;100;934.4683;;;;
2023/08/04 00:47:15;;;;;;;3.7;1.7;;;;;;;16.17;100;934.1675;;;;
2023/08/04 00:49:40;;;;;;;2.4;1.2;;;;;;;16.18;100;933.944;;;;
2023/08/04 00:52:05;;;;;;;2.1;1.5;;;;;;;16.18;100;933.9713;;;;
2023/08/04 00:54:30;;;;;;;2;1.2;;;;;;;16.17;100;933.9489;;;;
2023/08/04 00:56:57;;;;;;;3.5;1.6;;;;;;;16.24;100;933.747;;;;
2023/08/04 00:59:22;;;;;;;2.6;1.2;;;;;;;16.15;100;933.7324;;;;
2023/08/04 01:01:47;;;;;;;2.3;1.5;;;;;;;16.16;100;933.7258;;;;
2023/08/04 01:04:14;;;;;;;3.4;1.6;;;;;;;16.24;100;933.7028;;;;
2023/08/04 01:06:39;;;;;;;1.5;1.3;;;;;;;16.32;100;933.7101;;;;
2023/08/04 01:09:04;;;;;;;1.6;1.3;;;;;;;16.23;100;933.7971;;;;
2023/08/04 01:11:29;;;;;;;4;1.3;;;;;;;16.23;100;933.8524;;;;
2023/08/04 01:16:19;;;;;;;2.9;1.1;;;;;;;16.12;100;933.7281;;;;
2023/08/04 01:18:45;;;;;;;1.8;1.2;;;;;;;16.08;100;933.7266;;;;
2023/08/04 01:21:10;;;;;;;1.4;1.1;;;;;;;16.17;100;933.7617;;;;
2023/08/04 01:23:35;;;;;;;2.7;1.4;;;;;;;16.06;100;933.8441;;;;
2023/08/04 01:26:02;;;;;;;3.1;1.7;;;;;;;15.95;100;933.7971;;;;
2023/08/04 01:28:26;;;;;;;1.9;1.2;;;;;;;16.04;100;933.7031;;;;
2023/08/04 01:33:25;;;;;;;1.2;1.1;;;;;;;16.23;100;933.8878;;;;
2023/08/04 01:35:50;;;;;;;2.2;1;;;;;;;16.27;100;933.8083;;;;
2023/08/04 01:38:15;;;;;;;3.3;1.3;;;;;;;16.24;100;933.7985;;;;
2023/08/04 01:40:43;;;;;;;1.2;1.1;;;;;;;16.28;100;933.6794;;;;
2023/08/04 01:43:09;;;;;;;1.6;1.2;;;;;;;16.25;100;933.6054;;;;
2023/08/04 01:45:34;;;;;;;1.5;1;;;;;;;16.15;100;933.6449;;;;
2023/08/04 01:47:59;;;;;;;1.5;1;;;;;;;16.18;100;933.7021;;;;
2023/08/04 01:50:25;;;;;;;1.5;1;;;;;;;16.17;100;933.7537;;;;
2023/08/04 01:52:51;;;;;;;1.2;1.1;;;;;;;16.06;100;933.7205;;;;
2023/08/04 01:55:17;;;;;;;2.4;1.2;;;;;;;15.98;100;933.7128;;;;
2023/08/04 01:57:42;;;;;;;1.6;1.2;;;;;;;15.93;100;933.693;;;;
2023/08/04 02:00:11;;;;;;;1.4;1.3;;;;;;;15.96;100;933.5808;;;;
2023/08/04 02:02:35;;;;;;;1.8;1.3;;;;;;;15.86;100;933.5648;;;;
2023/08/04 02:05:00;;;;;;;1.1;1;;;;;;;15.85;100;933.5643;;;;
2023/08/04 02:07:26;;;;;;;3.1;1.1;;;;;;;15.86;100;933.6011;;;;
2023/08/04 02:09:52;;;;;;;3.6;1.1;;;;;;;15.9;100;933.6003;;;;
2023/08/04 02:12:16;;;;;;;3.1;1.4;;;;;;;15.91;100;933.658;;;;
2023/08/04 02:14:42;;;;;;;1.8;1.1;;;;;;;15.93;100;933.6005;;;;
2023/08/04 02:17:08;;;;;;;2.3;1.5;;;;;;;15.86;100;933.6204;;;;
2023/08/04 02:19:34;;;;;;;1.3;1.2;;;;;;;15.9;100;933.6694;;;;
2023/08/04 02:21:59;;;;;;;2.1;1.2;;;;;;;16;100;933.7166;;;;
2023/08/04 02:24:26;;;;;;;1.3;1.2;;;;;;;16.02;100;933.8754;;;;
2023/08/04 02:26:52;;;;;;;1.4;1.1;;;;;;;15.98;100;933.9796;;;;
2023/08/04 02:29:18;;;;;;;0.9;0.9;;;;;;;15.95;100;934.0668;;;;
2023/08/04 02:31:43;;;;;;;2.1;1.1;;;;;;;15.79;100;934.1102;;;;
2023/08/04 02:34:08;;;;;;;3.3;1.1;;;;;;;15.84;100;934.0093;;;;
2023/08/04 02:36:33;;;;;;;2.9;1.3;;;;;;;15.93;100;933.8873;;;;
2023/08/04 02:38:58;;;;;;;1.7;1.1;;;;;;;15.93;100;934.0197;;;;
2023/08/04 02:41:24;;;;;;;2.6;1.4;;;;;;;15.91;100;934.0378;;;;
2023/08/04 02:43:50;;;;;;;2.6;1.3;;;;;;;15.94;100;934.0172;;;;
2023/08/04 02:46:15;;;;;;;1.7;1.2;;;;;;;15.85;100;934.0733;;;;
2023/08/04 02:48:41;;;;;;;1.5;1.2;;;;;;;15.92;100;934.1348;;;;
2023/08/04 02:51:06;;;;;;;1.5;1.2;;;;;;;16.03;100;934.3234;;;;
2023/08/04 02:53:34;;;;;;;2.2;1.3;;;;;;;15.99;100;934.4523;;;;
2023/08/04 02:55:59;;;;;;;2;1.2;;;;;;;16.01;100;934.4263;;;;
2023/08/04 02:58:26;;;;;;;1.4;1.1;;;;;;;16;100;934.2569;;;;
2023/08/04 03:00:52;;;;;;;2.6;1.2;;;;;;;16.03;100;934.2511;;;;
2023/08/04 03:03:17;;;;;;;1.6;1.3;;;;;;;15.76;100;934.2231;;;;
2023/08/04 03:05:42;;;;;;;2.3;1.2;;;;;;;15.74;100;934.2605;;;;
2023/08/04 03:08:09;;;;;;;1.6;1;;;;;;;15.8;100;934.2746;;;;
2023/08/04 03:10:34;;;;;;;2.1;1.1;;;;;;;15.8;100;934.1959;;;;
2023/08/04 03:13:00;;;;;;;1.8;1.4;;;;;;;15.79;100;934.1978;;;;
2023/08/04 03:15:25;;;;;;;1.2;1.1;;;;;;;15.83;100;934.2721;;;;
2023/08/04 03:17:52;;;;;;;1.4;1.3;;;;;;;15.75;100;934.2859;;;;
2023/08/04 03:20:17;;;;;;;2;1.4;;;;;;;15.76;100;934.2537;;;;
2023/08/04 03:22:46;;;;;;;3.7;1.2;;;;;;;15.6;100;934.1677;;;;
2023/08/04 03:25:11;;;;;;;1.9;1.3;;;;;;;15.69;100;934.2693;;;;
2023/08/04 03:27:36;;;;;;;1.2;1;;;;;;;15.66;100;934.3002;;;;
2023/08/04 03:30:01;;;;;;;2;1.3;;;;;;;15.72;100;934.3137;;;;
2023/08/04 03:32:27;;;;;;;1.8;1;;;;;;;15.76;100;934.3186;;;;
2023/08/04 03:34:52;;;;;;;2.1;1.2;;;;;;;15.81;100;934.46;;;;
2023/08/04 03:37:17;;;;;;;1.3;1.1;;;;;;;15.83;100;934.5545;;;;
2023/08/04 03:39:42;;;;;;;1.8;1.4;;;;;;;15.8;100;934.5098;;;;
2023/08/04 03:42:07;;;;;;;1.4;1.1;;;;;;;15.81;100;934.4648;;;;
2023/08/04 03:44:32;;;;;;;1.9;1.1;;;;;;;15.8;100;934.6158;;;;
2023/08/04 03:46:57;;;;;;;2.4;1;;;;;;;15.67;100;934.6556;;;;
2023/08/04 03:49:23;;;;;;;1.8;1.2;;;;;;;15.72;100;934.6541;;;;
2023/08/04 03:51:48;;;;;;;1.2;0.9;;;;;;;15.76;100;934.6238;;;;
2023/08/04 03:54:14;;;;;;;2.1;1;;;;;;;15.71;100;934.6959;;;;
2023/08/04 03:56:39;;;;;;;1.5;1.1;;;;;;;15.64;100;934.6522;;;;
2023/08/04 03:59:08;;;;;;;1.4;0.8;;;;;;;15.66;100;934.748;;;;
2023/08/04 04:02:31;;;;;;;2.4;1.2;;;;;;;15.64;100;934.7532;;;;
2023/08/04 04:04:57;;;;;;;1.5;1;;;;;;;15.66;100;934.8058;;;;
2023/08/04 04:07:25;;;;;;;1.9;1;;;;;;;15.7;100;934.8575;;;;
2023/08/04 04:09:50;;;;;;;2.5;0.9;;;;;;;15.74;100;934.8906;;;;
2023/08/04 04:12:44;;;;;;;2.9;1;;;;;;;15.72;100;934.9598;;;;
2023/08/04 04:15:15;;;;;;;1.4;0.9;;;;;;;15.42;100;934.9494;;;;
2023/08/04 04:17:42;;;;;;;1.1;0.7;;;;;;;15.27;100;934.8862;;;;
2023/08/04 04:20:07;;;;;;;0.8;0.7;;;;;;;15.25;100;934.8505;;;;
2023/08/04 04:22:33;;;;;;;1.2;0.8;;;;;;;15.29;100;934.8555;;;;
2023/08/04 04:24:58;;;;;;;0.9;0.7;;;;;;;15.29;100;934.801;;;;
2023/08/04 04:27:23;;;;;;;3.3;1.1;;;;;;;15.28;100;934.9126;;;;
2023/08/04 04:29:49;;;;;;;1.3;0.6;;;;;;;15.29;100;934.8956;;;;
2023/08/04 04:32:14;;;;;;;0.8;0.8;;;;;;;15.15;100;934.8636;;;;
2023/08/04 04:34:41;;;;;;;1.3;0.8;;;;;;;15.03;100;934.7994;;;;
2023/08/04 04:37:06;;;;;;;1.2;1;;;;;;;15.08;100;934.887;;;;
2023/08/04 04:39:33;;;;;;;1.3;0.9;;;;;;;15.14;100;934.8628;;;;
2023/08/04 04:41:58;;;;;;;1.5;1;;;;;;;15.24;100;934.8892;;;;
2023/08/04 04:44:24;;;;;;;1.1;0.8;;;;;;;15.14;100;934.8717;;;;
2023/08/04 04:46:49;;;;;;;1.1;0.7;;;;;;;15.1;100;934.8635;;;;
2023/08/04 04:49:16;;;;;;;1;0.7;;;;;;;14.92;100;934.8719;;;;
2023/08/04 04:51:41;;;;;;;1.4;0.7;;;;;;;14.95;100;934.7994;;;;
2023/08/04 04:54:07;;;;;;;1.4;0.7;;;;;;;14.95;100;934.7961;;;;
2023/08/04 04:56:33;;;;;;;1.4;0.7;;;;;;;14.93;100;934.7924;;;;
2023/08/04 04:58:58;;;;;;;1;0.4;;;;;;;14.9;99.27344;934.8699;;;;
2023/08/04 05:01:25;;;;;;;1.8;0.6;;;;;;;14.88;98.75098;934.7979;;;;
2023/08/04 05:03:51;;;;;;;0.8;0.5;;;;;;;14.94;99.07617;934.8275;;;;
2023/08/04 05:06:16;;;;;;;1.2;0.5;;;;;;;14.94;98.6377;934.8724;;;;
2023/08/04 05:08:41;;;;;;;0.8;0.5;;;;;;;15.01;99.73828;934.7786;;;;
2023/08/04 05:11:23;;;;;;;1.1;0.6;;;;;;;15.07;99.40527;934.6394;;;;
2023/08/04 05:13:49;;;;;;;1.4;0.4;;;;;;;14.91;99.3584;934.7238;;;;
2023/08/04 05:16:14;;;;;;;2.2;0.7;;;;;;;14.99;99.35352;934.7372;;;;
2023/08/04 05:18:42;;;;;;;1.4;0.7;;;;;;;14.94;99.49121;934.7194;;;;
2023/08/04 05:21:07;;;;;;;1.3;0.6;;;;;;;14.9;99.76953;934.63;;;;
2023/08/04 05:23:38;;;;;;;1.4;0.7;;;;;;;14.73;100;934.6792;;;;
2023/08/04 05:26:07;;;;;;;1;0.5;;;;;;;14.7;99.66895;934.6852;;;;
2023/08/04 05:28:32;;;;;;;1;0.5;;;;;;;14.68;99.75488;934.7841;;;;
2023/08/04 05:30:57;;;;;;;1.7;0.6;;;;;;;14.62;99.81152;934.7991;;;;
2023/08/04 05:33:23;;;;;;;1;0.5;;;;;;;14.49;100;934.7708;;;;
2023/08/04 05:35:48;;;;;;;0.8;0.5;;;;;;;14.45;100;934.7383;;;;
2023/08/04 05:38:15;;;;;;;1.6;0.9;;;;;;;14.61;100;934.6836;;;;
2023/08/04 05:40:40;;;;;;;0.8;0.5;;;;;;;14.68;100;934.5452;;;;
2023/08/04 05:43:06;;;;;;;1.6;0.5;;;;;;;14.59;100;934.5748;;;;
2023/08/04 05:45:31;;;;;;;1.6;0.8;;;;;;;14.43;100;934.5455;;;;
2023/08/04 05:47:57;;;;;;;1.2;0.7;;;;;;;14.5;100;934.6929;;;;
2023/08/04 05:50:23;;;;;;;1.1;0.8;;;;;;;14.42;100;934.7087;;;;
2023/08/04 05:52:49;;;;;;;0.6;0.6;;;;;;;14.35;100;934.6259;;;;
2023/08/04 05:55:14;;;;;;;1.4;1;;;;;;;14.36;100;934.5961;;;;
2023/08/04 05:57:43;;;;;;;3.2;0.8;;;;;;;14.43;100;934.6632;;;;
2023/08/04 06:00:11;;;;;;;1;0.6;;;;;;;14.5;100;934.6633;;;;
2023/08/04 06:02:36;;;;;;;0.7;0.7;;;;;;;14.52;100;934.5781;;;;
2023/08/04 06:05:01;;;;;;;1;0.9;;;;;;;14.62;100;934.6277;;;;
2023/08/04 06:07:28;;;;;;;1;0.7;;;;;;;14.6;100;934.5209;;;;
2023/08/04 06:09:53;;;;;;;0.6;0.6;;;;;;;14.58;100;934.4548;;;;
2023/08/04 06:12:20;;;;;;;0.7;0.7;;;;;;;14.75;100;934.4465;;;;
2023/08/04 06:14:45;;;;;;;1.3;1.2;;;;;;;14.67;100;934.4428;;;;
2023/08/04 06:17:14;;;;;;;1.1;0.6;;;;;;;14.55;100;934.4664;;;;
2023/08/04 06:19:39;;;;;;;1.6;0.7;;;;;;;14.59;100;934.4474;;;;
2023/08/04 06:22:18;;;;;;;1.2;0.8;;;;;;;14.7;100;934.5786;;;;
2023/08/04 06:24:46;;;;;;;1.8;0.9;;;;;;;14.63;100;934.6381;;;;
2023/08/04 06:27:11;;;;;;;1.5;0.7;;;;;;;14.63;100;934.7181;;;;
2023/08/04 06:29:36;;;;;;;0.8;0.6;;;;;;;14.61;100;934.7404;;;;
2023/08/04 06:32:01;;;;;;;1.5;0.8;;;;;;;14.54;100;934.7228;;;;
2023/08/04 06:34:44;;;;;;;0.9;0.6;;;;;;;14.6;100;934.7206;;;;
2023/08/04 06:37:12;;;;;;;1.5;0.7;;;;;;;14.48;100;934.75;;;;
2023/08/04 06:39:37;;;;;;;0.9;0.7;;;;;;;14.38;100;934.7794;;;;
2023/08/04 06:42:04;;;;;;;0.6;0.6;;;;;;;14.39;100;934.7816;;;;
2023/08/04 06:44:29;;;;;;;0.5;0.5;;;;;;;14.43;99.44531;934.7559;;;;
2023/08/04 06:46:56;;;;;;;1.5;0.9;;;;;;;14.54;98.82324;934.7926;;;;
2023/08/04 06:49:21;;;;;;;2.1;1.2;;;;;;;14.53;98.14258;934.8119;;;;
2023/08/04 06:51:51;;;;;;;1.3;0.8;;;;;;;14.55;99.05566;934.7612;;;;
2023/08/04 06:54:15;;;;;;;1.3;0.7;;;;;;;14.5;98.74512;934.7241;;;;
2023/08/04 06:56:42;;;;;;;1.4;0.7;;;;;;;14.66;99.87695;934.7018;;;;
2023/08/04 06:59:07;;;;;;;2;1.2;;;;;;;14.76;98.97754;934.7622;;;;
2023/08/04 07:01:32;;;;;;;1.9;0.9;;;;;;;14.94;98.25781;934.7546;;;;
2023/08/04 07:03:57;;;;;;;0.9;0.7;;;;;;;14.86;97.27051;934.7589;;;;
2023/08/04 07:06:23;;;;;;;1.1;0.8;;;;;;;15.05;98.25879;934.7383;;;;
2023/08/04 07:08:48;;;;;;;0.8;0.8;;;;;;;15.04;96.92969;934.7792;;;;
2023/08/04 07:12:21;;;;;;;1.2;0.8;;;;;;;15.19;96.56055;934.7316;;;;
2023/08/04 07:17:10;;;;;;;1.3;1.1;;;;;;;15.35;97.13672;934.7551;;;;
2023/08/04 07:19:38;;;;;;;1.5;0.5;;;;;;;15.33;95.8623;934.741;;;;
2023/08/04 07:22:03;;;;;;;0.7;0.7;;;;;;;15.4;97.70313;934.7006;;;;
2023/08/04 07:24:31;;;;;;;1.6;0.7;;;;;;;15.48;95.57129;934.6902;;;;
2023/08/04 07:26:56;;;;;;;1.1;0.5;;;;;;;15.59;96.21094;934.7473;;;;
2023/08/04 07:29:23;;;;;;;0.5;0.5;;;;;;;15.53;92.19922;934.6998;;;;
2023/08/04 07:31:48;;;;;;;0.4;0.4;;;;;;;15.58;91.99121;934.6572;;;;
2023/08/04 07:34:16;;;;;;;0.4;0.4;;;;;;;15.74;91.86133;934.6273;;;;
2023/08/04 07:36:41;;;;;;;0.5;0.5;;;;;;;15.94;92.98047;934.6153;;;;
2023/08/04 07:39:07;;;;;;;1.1;0.7;;;;;;;15.75;90.8252;934.6897;;;;
2023/08/04 07:41:32;;;;;;;1.1;0.6;;;;;;;15.74;91.3418;934.6128;;;;
2023/08/04 07:43:58;;;;;;;0.7;0.7;;;;;;;15.97;91.7627;934.74;;;;
2023/08/04 07:46:23;;;;;;;1;1;;;;;;;15.89;91.4541;934.6716;;;;
2023/08/04 07:48:49;;;;;;;0.5;0.5;;;;;;;15.8;89.49414;934.6689;;;;
2023/08/04 07:51:14;;;;;;;0.8;0.5;;;;;;;15.79;88.03613;934.6947;;;;
2023/08/04 07:53:39;;;;;;;0.7;0.5;;;;;;;15.93;90.66602;934.7054;;;;
2023/08/04 07:56:04;;;;;;;1.8;0.7;;;;;;;15.73;88.17383;934.6571;;;;
2023/08/04 07:58:30;;;;;;;0.6;0.4;;;;;;;15.81;87.42676;934.6912;;;;
2023/08/04 08:00:57;;;;;;;0.6;0.5;;;;;;;15.85;89.97754;934.7029;;;;
2023/08/04 08:03:22;;;;;;;0.5;0.5;;;;;;;15.95;90.81055;934.6424;;;;
2023/08/04 08:05:49;;;;;;;0.6;0.5;;;;;;;16.05;88.56055;934.6283;;;;
2023/08/04 08:08:14;;;;;;;1;0.6;;;;;;;16.17;88.52832;934.6526;;;;
2023/08/04 08:10:42;;;;;;;0.9;0.7;;;;;;;16.32;89.39258;934.5681;;;;
2023/08/04 08:14:37;;;;;;;0.7;0.6;;;;;;;16.43;91.17383;934.5078;;;;
2023/08/04 08:17:04;;;;;;;0.8;0.7;;;;;;;16.51;90.31152;934.4693;;;;
2023/08/04 08:19:28;;;;;;;1.9;0.6;;;;;;;16.56;89.7998;934.5165;;;;
2023/08/04 08:21:56;;;;;;;0.7;0.5;;;;;;;16.63;90.9707;934.5316;;;;
2023/08/04 08:24:21;;;;;;;0.6;0.4;;;;;;;16.57;89.91699;934.5405;;;;
2023/08/04 08:26:46;;;;;;;1;0.6;;;;;;;16.53;89.30957;934.5186;;;;
2023/08/04 08:29:11;;;;;;;0.4;0.4;;;;;;;16.43;89.75098;934.4354;;;;
2023/08/04 08:31:37;;;;;;;1;0.6;;;;;;;16.46;90.23047;934.3731;;;;
2023/08/04 08:34:02;;;;;;;0.7;0.4;;;;;;;16.36;89.70313;934.3947;;;;
2023/08/04 08:36:31;;;;;;;0.8;0.5;;;;;;;16.37;89.58691;934.3873;;;;
2023/08/04 08:38:56;;;;;;;0.4;0.4;;;;;;;16.55;90.32031;934.3575;;;;
2023/08/04 08:41:21;;;;;;;0.4;0.4;;;;;;;16.63;89.28223;934.296;;;;
2023/08/04 08:43:46;;;;;;;0.6;0.6;;;;;;;16.51;86.5166;934.3293;;;;
2023/08/04 08:46:15;;;;;;;0.8;0.4;;;;;;;16.49;86.4873;934.3434;;;;
2023/08/04 08:48:40;;;;;;;0.6;0.5;;;;;;;16.64;87.70898;934.3505;;;;
2023/08/04 08:51:08;;;;;;;0.7;0.5;;;;;;;16.73;87.20605;934.2492;;;;
2023/08/04 08:53:33;;;;;;;0.5;0.4;;;;;;;16.97;86.77734;934.2678;;;;
2023/08/04 08:56:00;;;;;;;0.8;0.5;;;;;;;17.05;84.9043;934.2415;;;;
2023/08/04 08:58:25;;;;;;;0.6;0.6;;;;;;;17.18;85.78809;934.1805;;;;
2023/08/04 09:00:53;;;;;;;0.8;0.4;;;;;;;17.29;86.7041;934.1589;;;;
2023/08/04 09:03:18;;;;;;;0.5;0.5;;;;;;;17.36;85.13965;934.134;;;;
2023/08/04 09:05:44;;;;;;;0.8;0.6;;;;;;;17.53;82.89844;934.0305;;;;
2023/08/04 09:08:09;;;;;;;0.5;0.4;;;;;;;17.62;83.27344;934.0574;;;;
2023/08/04 09:10:38;;;;;;;0.8;0.5;;;;;;;17.68;81.54688;934.017;;;;
2023/08/04 09:13:03;;;;;;;0.7;0.5;;;;;;;18.06;82.82324;933.9855;;;;
2023/08/04 09:15:34;;;;;;;0.7;0.6;;;;;;;18.02;78.13574;933.963;;;;
2023/08/04 09:18:01;;;;;;;1;0.5;;;;;;;17.9;77.69629;933.9191;;;;
2023/08/04 09:20:29;;;;;;;0.8;0.5;;;;;;;17.75;78.69141;933.9767;;;;
2023/08/04 09:22:51;;;;;;;0.4;0.4;;;;;;;17.79;79.96484;933.9241;;;;
2023/08/04 09:25:19;;;;;;;0.9;0.4;;;;;;;17.82;81.21191;933.8469;;;;
2023/08/04 09:27:49;;;;;;;0.3;0.3;;;;;;;17.85;78.89453;933.8368;;;;
2023/08/04 09:30:09;;;;;;;0.5;0.5;;;;;;;17.93;80.26758;933.8152;;;;
2023/08/04 09:32:43;;;;;;;0.3;0.3;;;;;;;18.21;79.28516;933.8943;;;;
2023/08/04 09:35:05;;;;;;;0.4;0.4;;;;;;;18.27;77.71582;933.8906;;;;
2023/08/04 09:37:31;;;;;;;0.5;0.4;;;;;;;17.84;78.92773;933.8402;;;;
2023/08/04 09:39:58;;;;;;;0.6;0.5;;;;;;;18.45;78.85059;933.7297;;;;
2023/08/04 09:42:23;;;;;;;0.5;0.4;;;;;;;18.43;76.45215;933.7093;;;;
2023/08/04 09:44:48;;;;;;;1.5;0.4;;;;;;;18.18;75.40918;933.5793;;;;
2023/08/04 09:47:15;;;;;;;1.3;0.4;;;;;;;18.32;77.60742;933.6201;;;;
2023/08/04 09:49:40;;;;;;;0.5;0.5;;;;;;;18.51;76.72363;933.5092;;;;
2023/08/04 09:52:06;;;;;;;0.3;0.3;;;;;;;18.4;77.02832;933.4091;;;;
2023/08/04 09:54:31;;;;;;;0.3;0.3;;;;;;;18.56;78.10352;933.3837;;;;
2023/08/04 09:56:58;;;;;;;0.3;0.3;;;;;;;18.77;77.96582;933.4564;;;;
2023/08/04 09:59:23;;;;;;;0.4;0.4;;;;;;;19.13;76.30664;933.5946;;;;
2023/08/04 10:01:52;;;;;;;0.5;0.3;;;;;;;19.26;74.9209;933.7375;;;;
2023/08/04 10:04:16;;;;;;;0.5;0.4;;;;;;;19.35;72.96582;933.7985;;;;
2023/08/04 10:06:41;;;;;;;0.6;0.3;;;;;;;19.15;72.62988;933.8361;;;;
2023/08/04 10:09:07;;;;;;;1.2;0.4;;;;;;;19.17;73.27344;933.8314;;;;
2023/08/04 10:11:35;;;;;;;0.5;0.3;;;;;;;19.29;74.21484;933.8078;;;;
2023/08/04 10:14:01;;;;;;;0.6;0.3;;;;;;;19.71;72.03516;933.6747;;;;
2023/08/04 10:16:25;;;;;;;0.5;0.3;;;;;;;20.17;72.45898;933.5369;;;;
2023/08/04 10:18:51;;;;;;;0.3;0.3;;;;;;;20.56;69.87109;933.5167;;;;
2023/08/04 10:21:16;;;;;;;1.2;0.3;;;;;;;20.81;70.33301;933.5608;;;;
2023/08/04 10:23:42;;;;;;;0.4;0.4;;;;;;;20.75;68.24316;933.568;;;;
2023/08/04 10:26:07;;;;;;;0.4;0.4;;;;;;;20.65;65.85449;933.4066;;;;
2023/08/04 10:28:59;;;;;;;0.5;0.5;;;;;;;20.46;67.01855;933.2492;;;;
2023/08/04 10:31:25;;;;;;;0.4;0.3;;;;;;;20.55;66.87891;933.207;;;;
2023/08/04 10:33:50;;;;;;;0.3;0.3;;;;;;;20.87;65.72461;933.3833;;;;
2023/08/04 10:36:15;;;;;;;0.5;0.4;;;;;;;20.43;64.24512;933.4881;;;;
2023/08/04 10:38:44;;;;;;;0.7;0.4;;;;;;;20.58;66.50977;933.524;;;;
2023/08/04 10:41:09;;;;;;;0.4;0.4;;;;;;;20.45;62.88184;933.8384;;;;
2023/08/04 10:43:33;;;;;;;1.7;0.5;;;;;;;20.24;68.2334;933.8767;;;;
2023/08/04 10:46:03;;;;;;;0.8;0.4;;;;;;;20.64;68.09668;933.9703;;;;
2023/08/04 10:48:25;;;;;;;0.5;0.4;;;;;;;20.73;63.08496;933.9233;;;;
2023/08/04 10:50:50;;;;;;;0.3;0.3;;;;;;;20.9;64.59375;933.9211;;;;
2023/08/04 10:53:15;;;;;;;0.3;0.2;;;;;;;20.81;61.56641;933.823;;;;
2023/08/04 10:55:42;;;;;;;0.7;0.4;;;;;;;21.02;62.55469;933.8061;;;;
2023/08/04 10:58:10;;;;;;;0.5;0.4;;;;;;;21.44;63.13867;933.782;;;;
2023/08/04 11:00:35;;;;;;;0.9;0.5;;;;;;;20.86;61.53809;933.8483;;;;
2023/08/04 11:03:01;;;;;;;0.5;0.5;;;;;;;21.21;62.61523;933.871;;;;
2023/08/04 11:05:26;;;;;;;1.1;0.5;;;;;;;20.82;62.04688;933.8368;;;;
2023/08/04 11:07:51;;;;;;;0.6;0.5;;;;;;;20.29;64.80957;933.8984;;;;
2023/08/04 11:10:17;;;;;;;1.2;0.5;;;;;;;20.69;63.95605;933.8591;;;;
2023/08/04 11:12:42;;;;;;;0.9;0.4;;;;;;;20.73;63.68066;933.8456;;;;
2023/08/04 11:15:11;;;;;;;0.6;0.6;;;;;;;20.44;61.74707;933.8179;;;;
2023/08/04 11:18:26;;;;;;;0.4;0.4;;;;;;;20.59;58.70801;933.8342;;;;
2023/08/04 11:20:51;;;;;;;0.4;0.4;;;;;;;20.85;58.69434;933.762;;;;
2023/08/04 11:23:17;;;;;;;0.7;0.3;;;;;;;21.18;58.79688;933.7255;;;;
2023/08/04 11:25:43;;;;;;;1;0.5;;;;;;;21.42;58.61914;933.6025;;;;
2023/08/04 11:28:08;;;;;;;0.5;0.5;;;;;;;21.58;58.60547;933.5737;;;;
2023/08/04 11:30:33;;;;;;;0.7;0.4;;;;;;;21.83;62.85547;933.6169;;;;
2023/08/04 11:32:58;;;;;;;0.6;0.4;;;;;;;21.91;57.25391;933.572;;;;
2023/08/04 11:35:24;;;;;;;14.8;5.3;;;;;;;21.78;56.47559;933.6111;;;;
2023/08/04 11:37:50;;;;;;;1.6;0.5;;;;;;;21.88;58.26855;933.5898;;;;
2023/08/04 11:40:18;;;;;;;0.5;0.5;;;;;;;21.72;58.98535;933.7101;;;;
2023/08/04 11:42:43;;;;;;;0.5;0.5;;;;;;;21.72;56.33789;933.8067;;;;
2023/08/04 11:45:10;;;;;;;0.7;0.7;;;;;;;21.52;59.39355;933.7527;;;;
2023/08/04 11:47:35;;;;;;;0.4;0.4;;;;;;;21.34;60.11816;933.8033;;;;
2023/08/04 11:50:02;;;;;;;0.6;0.6;;;;;;;21.21;59.25684;933.8265;;;;
2023/08/04 11:52:25;;;;;;;0.8;0.4;;;;;;;20.85;61.76855;933.7833;;;;
2023/08/04 11:54:50;;;;;;;1;0.5;;;;;;;20.72;64.80176;933.7498;;;;
2023/08/04 11:57:16;;;;;;;0.5;0.4;;;;;;;20.37;64.62109;933.7727;;;;
2023/08/04 11:59:41;;;;;;;0.4;0.4;;;;;;;20.28;63.47559;933.7397;;;;
2023/08/04 12:02:07;;;;;;;2;0.7;;;;;;;20.18;63.35645;933.6967;;;;
2023/08/04 12:04:47;;;;;;;0.6;0.5;;;;;;;20.37;64.72656;933.6942;;;;
2023/08/04 12:06:57;;;;;;;0.8;0.5;;;;;;;20.48;67.33691;933.6626;;;;
2023/08/04 12:09:23;;;;;;;0.7;0.6;;;;;;;20.4;67.28809;933.6788;;;;
2023/08/04 12:11:48;;;;;;;0.6;0.6;;;;;;;20.45;70.79004;933.5527;;;;
2023/08/04 12:14:13;;;;;;;0.5;0.5;;;;;;;20.42;69.9082;933.5561;;;;
2023/08/04 12:16:38;;;;;;;1.4;0.4;;;;;;;20.57;70.52637;933.5064;;;;
2023/08/04 12:19:04;;;;;;;2.3;0.6;;;;;;;20.59;70.23926;933.5598;;;;
2023/08/04 12:21:28;;;;;;;0.5;0.5;;;;;;;20.5;71.5918;933.5914;;;;
2023/08/04 12:23:54;;;;;;;0.5;0.5;;;;;;;21.02;64.2373;933.4911;;;;
2023/08/04 12:26:19;;;;;;;0.5;0.5;;;;;;;21.28;64.50879;933.3879;;;;
2023/08/04 12:28:46;;;;;;;2.9;0.7;;;;;;;21.28;68.11328;933.3928;;;;
2023/08/04 12:31:11;;;;;;;0.8;0.6;;;;;;;21.38;70.31738;933.3434;;;;
2023/08/04 12:33:37;;;;;;;0.6;0.6;;;;;;;21.24;69.55859;933.3002;;;;
2023/08/04 12:36:02;;;;;;;1;0.6;;;;;;;21.42;68.14551;933.29;;;;
2023/08/04 12:38:28;;;;;;;1;0.5;;;;;;;21.61;65.62305;933.1641;;;;
2023/08/04 12:40:53;;;;;;;0.6;0.6;;;;;;;21.99;63.75684;933.1356;;;;
2023/08/04 12:43:19;;;;;;;0.4;0.4;;;;;;;21.99;61.49512;933.1283;;;;
2023/08/04 12:45:44;;;;;;;1.7;0.7;;;;;;;21.78;61.66602;933.21;;;;
2023/08/04 12:48:11;;;;;;;1;0.5;;;;;;;21.52;62.54297;933.2162;;;;
2023/08/04 12:50:36;;;;;;;0.4;0.3;;;;;;;21.3;65.09668;933.187;;;;
2023/08/04 12:53:03;;;;;;;0.4;0.4;;;;;;;21.51;62.86914;933.2126;;;;
2023/08/04 12:55:28;;;;;;;0.6;0.6;;;;;;;21.47;66.25781;933.2662;;;;
2023/08/04 12:57:57;;;;;;;0.6;0.6;;;;;;;21.05;67.3418;933.3337;;;;
2023/08/04 13:00:22;;;;;;;0.3;0.3;;;;;;;21.04;67.09277;933.3197;;;;
2023/08/04 13:02:48;;;;;;;0.9;0.5;;;;;;;21.19;63.81738;933.3212;;;;
2023/08/04 13:05:14;;;;;;;1.5;0.5;;;;;;;21.19;64.70605;933.3041;;;;
2023/08/04 13:07:41;;;;;;;1.8;0.5;;;;;;;21.08;66.12891;933.3045;;;;
2023/08/04 13:10:06;;;;;;;0.5;0.5;;;;;;;21.04;65.03516;933.3036;;;;
2023/08/04 13:12:31;;;;;;;1.3;0.5;;;;;;;21.21;63.64453;933.3229;;;;
2023/08/04 13:14:56;;;;;;;0.6;0.6;;;;;;;21.28;66.55664;933.3797;;;;
2023/08/04 13:17:26;;;;;;;0.5;0.5;;;;;;;21.36;62.0752;933.4447;;;;
2023/08/04 13:19:51;;;;;;;0.5;0.4;;;;;;;21.59;61.54395;933.5168;;;;
2023/08/04 13:22:19;;;;;;;1.1;0.5;;;;;;;21.78;60.27148;933.5381;;;;
2023/08/04 13:24:44;;;;;;;0.3;0.3;;;;;;;21.76;62.62207;933.4963;;;;
2023/08/04 13:27:12;;;;;;;0.5;0.4;;;;;;;21.77;59.96484;933.4496;;;;
2023/08/04 13:29:38;;;;;;;0.5;0.5;;;;;;;21.74;63.18262;933.497;;;;
2023/08/04 13:32:03;;;;;;;1.4;0.6;;;;;;;21.86;63.36328;933.4827;;;;
2023/08/04 13:34:28;;;;;;;0.7;0.6;;;;;;;21.99;60.13574;933.5209;;;;
2023/08/04 13:36:54;;;;;;;0.6;0.6;;;;;;;21.91;63.44141;933.5008;;;;
2023/08/04 13:39:19;;;;;;;1.8;0.8;;;;;;;22.2;61.10156;933.4681;;;;
2023/08/04 13:41:44;;;;;;;0.8;0.6;;;;;;;22.12;60.85645;933.4413;;;;
2023/08/04 13:44:10;;;;;;;1.4;0.7;;;;;;;22.2;61.75879;933.4623;;;;
2023/08/04 13:46:35;;;;;;;0.7;0.7;;;;;;;21.39;64.30273;933.521;;;;
2023/08/04 13:49:03;;;;;;;1.3;0.9;;;;;;;21.1;67.18457;933.532;;;;
2023/08/04 13:51:28;;;;;;;0.7;0.6;;;;;;;21.09;68.04883;933.5168;;;;
2023/08/04 13:53:53;;;;;;;0.6;0.6;;;;;;;21.06;67.11914;933.5563;;;;
2023/08/04 13:56:18;;;;;;;0.9;0.7;;;;;;;21.22;65.72852;933.5266;;;;
2023/08/04 13:58:44;;;;;;;1.4;0.9;;;;;;;21.22;69.82422;933.6074;;;;
2023/08/04 14:01:09;;;;;;;1.3;0.8;;;;;;;21;69.16895;933.593;;;;
2023/08/04 14:03:47;;;;;;;0.5;0.5;;;;;;;20.72;68.5293;933.5247;;;;
2023/08/04 14:06:16;;;;;;;0.9;0.7;;;;;;;20.82;66.23145;933.4872;;;;
2023/08/04 14:08:41;;;;;;;0.6;0.6;;;;;;;20.72;66.74121;933.5464;;;;
2023/08/04 14:11:06;;;;;;;0.8;0.8;;;;;;;20.75;67.69238;933.4525;;;;
2023/08/04 14:14:24;;;;;;;1.1;0.7;;;;;;;20.73;68.74121;933.4579;;;;
2023/08/04 14:16:51;;;;;;;1.5;0.6;;;;;;;20.5;67.49121;933.5186;;;;
2023/08/04 14:19:16;;;;;;;0.8;0.8;;;;;;;20.45;69.31543;933.6364;;;;
2023/08/04 14:21:46;;;;;;;0.8;0.6;;;;;;;20.31;70.50977;933.5014;;;;
2023/08/04 14:24:11;;;;;;;0.8;0.7;;;;;;;20.39;69.4834;933.5327;;;;
2023/08/04 14:26:41;;;;;;;0.8;0.7;;;;;;;20.42;70.52734;933.4963;;;;
2023/08/04 14:29:15;;;;;;;1.8;0.8;;;;;;;20.36;70.44727;933.4796;;;;
2023/08/04 14:31:36;;;;;;;0.6;0.6;;;;;;;20.26;73.03418;933.4047;;;;
2023/08/04 14:34:03;;;;;;;1;0.6;;;;;;;20.26;72.76563;933.3869;;;;
2023/08/04 14:36:28;;;;;;;1.5;0.8;;;;;;;20.31;73.18359;933.3575;;;;
2023/08/04 14:38:54;;;;;;;0.8;0.8;;;;;;;20.28;74.19531;933.3958;;;;
2023/08/04 14:41:19;;;;;;;0.6;0.6;;;;;;;20.08;75.15332;933.4059;;;;
2023/08/04 14:43:46;;;;;;;0.6;0.6;;;;;;;20.05;74.57715;933.3275;;;;
2023/08/04 14:46:12;;;;;;;1;0.9;;;;;;;19.98;74.13184;933.3661;;;;
2023/08/04 14:48:38;;;;;;;0.6;0.5;;;;;;;19.97;74.1875;933.3198;;;;
2023/08/04 14:51:03;;;;;;;0.7;0.7;;;;;;;20.04;74.30371;933.3564;;;;
2023/08/04 14:53:28;;;;;;;1.7;0.8;;;;;;;20.07;75.55762;933.2512;;;;
2023/08/04 14:55:54;;;;;;;1.3;0.7;;;;;;;19.89;74.28027;933.2101;;;;
2023/08/04 14:58:20;;;;;;;1;0.7;;;;;;;19.8;76.14355;933.2523;;;;
2023/08/04 15:00:45;;;;;;;1.3;0.8;;;;;;;19.7;74.99414;933.1993;;;;